createdAt,value
2018-07-20T00:01:06.945Z,69.80
2018-07-20T00:03:35.265Z,69.40
2018-07-20T00:06:02.820Z,69.40
2018-07-20T00:08:30.400Z,69.60
2018-07-20T00:10:57.947Z,69.80
2018-07-20T00:13:25.507Z,70.00
2018-07-20T00:15:53.082Z,70.10
2018-07-20T00:18:20.628Z,70.40
2018-07-20T00:20:48.183Z,70.70
2018-07-20T00:23:15.793Z,70.90
2018-07-20T00:25:43.341Z,71.00
2018-07-20T00:28:10.901Z,71.20
2018-07-20T00:30:38.478Z,71.50
2018-07-20T00:33:06.029Z,71.70
2018-07-20T00:35:33.586Z,72.10
2018-07-20T00:38:01.166Z,72.40
2018-07-20T00:40:28.719Z,72.50
2018-07-20T00:42:56.270Z,72.50
2018-07-20T00:45:24.521Z,72.40
2018-07-20T00:47:52.074Z,72.40
2018-07-20T00:50:19.622Z,72.70
2018-07-20T00:52:47.202Z,73.00
2018-07-20T00:55:14.753Z,73.30
2018-07-20T00:57:42.307Z,73.50
2018-07-20T01:00:09.891Z,73.60
2018-07-20T01:02:37.443Z,73.80
2018-07-20T01:05:04.992Z,74.00
2018-07-20T01:07:32.582Z,74.20
2018-07-20T01:10:00.131Z,74.30
2018-07-20T01:12:27.688Z,74.30
2018-07-20T01:14:55.278Z,74.60
2018-07-20T01:17:22.824Z,74.00
2018-07-20T01:19:50.370Z,74.00
2018-07-20T01:22:17.953Z,73.90
2018-07-20T01:24:45.498Z,73.80
2018-07-20T01:27:13.053Z,74.00
2018-07-20T01:29:43.281Z,75.00
2018-07-20T01:32:10.840Z,74.50
2018-07-20T01:34:38.391Z,74.60
2018-07-20T01:37:05.980Z,74.90
2018-07-20T01:39:33.536Z,75.00
2018-07-20T01:42:01.088Z,75.20
2018-07-20T01:44:28.668Z,75.40
2018-07-20T01:46:56.222Z,75.60
2018-07-20T01:49:23.776Z,75.70
2018-07-20T01:51:51.371Z,75.70
2018-07-20T01:54:18.918Z,75.50
2018-07-20T01:56:46.466Z,75.50
2018-07-20T01:59:14.418Z,75.50
2018-07-20T02:01:41.967Z,76.40
2018-07-20T02:04:09.512Z,75.70
2018-07-20T02:06:37.094Z,75.50
2018-07-20T02:09:04.652Z,75.70
2018-07-20T02:11:32.199Z,75.70
2018-07-20T02:14:00.201Z,75.80
2018-07-20T02:16:27.764Z,75.80
2018-07-20T02:18:55.314Z,76.10
2018-07-20T02:21:22.944Z,76.10
2018-07-20T02:23:50.459Z,76.20
2018-07-20T02:26:18.009Z,76.10
2018-07-20T02:28:45.595Z,76.90
2018-07-20T02:31:13.145Z,77.00
2018-07-20T02:33:40.706Z,76.40
2018-07-20T02:36:08.355Z,76.40
2018-07-20T02:38:35.881Z,76.60
2018-07-20T02:41:03.468Z,76.80
2018-07-20T02:43:31.031Z,76.40
2018-07-20T02:45:58.590Z,76.80
2018-07-20T02:48:26.143Z,77.10
2018-07-20T02:50:53.728Z,77.20
2018-07-20T02:53:21.276Z,77.40
2018-07-20T02:55:48.830Z,77.70
2018-07-20T02:58:16.810Z,77.90
2018-07-20T03:00:44.369Z,78.10
2018-07-20T03:03:11.924Z,78.40
2018-07-20T03:05:39.510Z,78.50
2018-07-20T03:08:07.070Z,78.70
2018-07-20T03:10:34.633Z,79.00
2018-07-20T03:13:02.594Z,79.40
2018-07-20T03:15:30.159Z,80.10
2018-07-20T03:17:57.716Z,79.30
2018-07-20T03:20:25.320Z,78.60
2018-07-20T03:22:53.641Z,78.30
2018-07-20T03:25:21.203Z,78.20
2018-07-20T03:27:48.779Z,78.30
2018-07-20T03:30:16.332Z,77.90
2018-07-20T03:32:43.953Z,78.10
2018-07-20T03:35:11.463Z,78.40
2018-07-20T03:37:39.018Z,78.70
2018-07-20T03:40:06.582Z,78.90
2018-07-20T03:42:34.202Z,79.20
2018-07-20T03:45:01.761Z,79.40
2018-07-20T03:47:29.324Z,79.80
2018-07-20T03:49:56.910Z,79.20
2018-07-20T03:52:24.496Z,79.30
2018-07-20T03:54:52.050Z,79.40
2018-07-20T03:57:19.639Z,79.70
2018-07-20T03:59:47.192Z,80.00
2018-07-20T04:02:14.752Z,80.10
2018-07-20T04:04:43.203Z,80.10
2018-07-20T04:07:10.767Z,80.30
2018-07-20T04:09:38.323Z,79.80
2018-07-20T04:12:05.912Z,79.20
2018-07-20T04:14:33.461Z,79.10
2018-07-20T04:17:01.024Z,79.10
2018-07-20T04:19:28.624Z,79.50
2018-07-20T04:21:56.947Z,78.90
2018-07-20T04:24:24.499Z,78.90
2018-07-20T04:26:52.096Z,78.90
2018-07-20T04:29:19.644Z,78.90
2018-07-20T04:31:47.197Z,79.00
2018-07-20T04:34:14.778Z,79.30
2018-07-20T04:36:42.329Z,79.70
2018-07-20T04:39:09.879Z,80.00
2018-07-20T04:41:37.470Z,80.30
2018-07-20T04:44:05.036Z,80.50
2018-07-20T04:46:32.599Z,80.80
2018-07-20T04:49:00.216Z,80.90
2018-07-20T04:51:27.769Z,81.00
2018-07-20T04:53:55.321Z,81.10
2018-07-20T04:56:22.909Z,81.00
2018-07-20T04:58:50.561Z,81.00
2018-07-20T05:01:18.043Z,81.00
2018-07-20T05:03:45.681Z,81.10
2018-07-20T05:06:13.983Z,81.50
2018-07-20T05:08:41.537Z,81.50
2018-07-20T05:11:09.600Z,81.30
2018-07-20T05:13:37.165Z,81.30
2018-07-20T05:16:04.709Z,81.20
2018-07-20T05:18:32.328Z,81.30
2018-07-20T05:20:59.897Z,81.20
2018-07-20T05:23:28.229Z,81.60
2018-07-20T05:25:55.828Z,80.80
2018-07-20T05:28:23.380Z,80.70
2018-07-20T05:30:50.984Z,80.50
2018-07-20T05:33:19.086Z,80.20
2018-07-20T05:35:46.664Z,80.10
2018-07-20T05:38:14.266Z,79.30
2018-07-20T05:40:41.824Z,78.90
2018-07-20T05:43:10.158Z,77.90
2018-07-20T05:45:37.708Z,78.60
2018-07-20T05:48:05.311Z,77.40
2018-07-20T05:50:32.868Z,77.10
2018-07-20T05:53:00.422Z,76.40
2018-07-20T05:55:28.564Z,76.20
2018-07-20T05:57:56.129Z,76.30
2018-07-20T06:00:23.696Z,76.10
2018-07-20T06:02:51.293Z,75.70
2018-07-20T06:05:19.622Z,75.50
2018-07-20T06:07:47.185Z,75.70
2018-07-20T06:10:14.785Z,75.60
2018-07-20T06:12:42.346Z,75.70
2018-07-20T06:15:09.901Z,75.60
2018-07-20T06:17:37.545Z,75.60
2018-07-20T06:20:05.105Z,75.40
2018-07-20T06:22:32.666Z,75.00
2018-07-20T06:25:00.310Z,74.60
2018-07-20T06:27:27.866Z,74.40
2018-07-20T06:29:55.426Z,74.00
2018-07-20T06:32:23.068Z,73.60
2018-07-20T06:34:50.624Z,73.10
2018-07-20T06:37:18.175Z,73.10
2018-07-20T06:39:47.019Z,72.70
2018-07-20T06:42:14.578Z,72.60
2018-07-20T06:44:42.133Z,72.30
2018-07-20T06:47:09.730Z,72.00
2018-07-20T06:49:37.290Z,72.10
2018-07-20T06:52:04.839Z,71.90
2018-07-20T06:54:32.437Z,71.20
2018-07-20T06:57:00.759Z,70.40
2018-07-20T06:59:28.315Z,70.30
2018-07-20T07:01:55.947Z,70.30
2018-07-20T07:04:23.502Z,70.30
2018-07-20T07:06:51.844Z,70.10
2018-07-20T07:09:19.498Z,70.10
2018-07-20T07:11:47.772Z,69.70
2018-07-20T07:16:53.627Z,68.80
2018-07-20T07:19:20.157Z,68.50
2018-07-20T07:21:47.717Z,68.60
2018-07-20T07:24:15.321Z,68.20
2018-07-20T07:26:42.915Z,67.40
2018-07-20T07:29:10.473Z,66.40
2018-07-20T07:31:38.871Z,64.30
2018-07-20T07:34:07.600Z,64.20
2018-07-20T07:36:35.157Z,64.00
2018-07-20T07:39:02.756Z,63.80
2018-07-20T07:41:30.313Z,63.40
2018-07-20T07:43:57.873Z,63.00
2018-07-20T07:46:25.473Z,62.40
2018-07-20T07:48:53.017Z,62.10
2018-07-20T07:51:20.567Z,61.70
2018-07-20T07:53:48.201Z,61.70
2018-07-20T07:56:15.765Z,61.80
2018-07-20T07:58:43.320Z,61.60
2018-07-20T08:01:10.929Z,61.30
2018-07-20T08:03:38.486Z,61.00
2018-07-20T08:06:06.809Z,60.20
2018-07-20T08:08:34.771Z,60.20
2018-07-20T08:11:02.319Z,59.40
2018-07-20T08:13:29.866Z,58.60
2018-07-20T08:15:57.530Z,58.10
2018-07-20T08:18:25.081Z,58.20
2018-07-20T08:20:54.673Z,56.70
2018-07-20T08:23:22.608Z,56.70
2018-07-20T08:25:50.162Z,56.30
2018-07-20T08:28:17.720Z,56.10
2018-07-20T08:30:45.348Z,55.80
2018-07-20T08:33:12.902Z,55.60
2018-07-20T08:35:41.225Z,54.20
2018-07-20T08:38:09.195Z,54.10
2018-07-20T08:40:36.738Z,53.60
2018-07-20T08:43:04.294Z,53.10
2018-07-20T08:45:31.888Z,52.80
2018-07-20T08:47:59.443Z,52.50
2018-07-20T08:50:26.992Z,52.20
2018-07-20T08:52:54.594Z,50.70
2018-07-20T08:55:22.138Z,50.10
2018-07-20T08:57:49.689Z,49.50
2018-07-20T09:00:17.822Z,49.50
2018-07-20T09:02:45.370Z,48.60
2018-07-20T09:05:13.694Z,46.50
2018-07-20T09:07:41.291Z,46.40
2018-07-20T09:10:08.841Z,46.20
2018-07-20T09:12:36.387Z,46.00
2018-07-20T09:15:03.977Z,45.70
2018-07-20T09:17:31.528Z,44.40
2018-07-20T09:19:59.108Z,43.80
2018-07-20T09:22:27.473Z,44.00
2018-07-20T09:24:55.027Z,43.30
2018-07-20T09:27:22.577Z,43.10
2018-07-20T09:29:50.177Z,42.50
2018-07-20T09:32:18.494Z,42.10
2018-07-20T09:34:46.064Z,42.10
2018-07-20T09:37:14.546Z,41.50
2018-07-20T09:39:42.275Z,41.40
2018-07-20T09:42:09.794Z,41.10
2018-07-20T09:44:37.434Z,40.70
2018-07-20T09:47:04.985Z,40.20
2018-07-20T09:49:32.539Z,39.60
2018-07-20T09:52:00.195Z,39.50
2018-07-20T09:54:27.728Z,38.80
2018-07-20T09:56:55.283Z,38.90
2018-07-20T09:59:23.733Z,38.50
2018-07-20T10:01:51.259Z,38.40
2018-07-20T10:04:18.816Z,37.80
2018-07-20T10:06:46.464Z,37.60
2018-07-20T10:09:14.801Z,36.60
2018-07-20T10:11:42.363Z,36.60
2018-07-20T10:14:09.957Z,36.50
2018-07-20T10:16:38.278Z,36.20
2018-07-20T10:19:05.875Z,36.10
2018-07-20T10:21:33.431Z,36.00
2018-07-20T10:24:00.974Z,35.80
2018-07-20T10:26:28.534Z,35.80
2018-07-20T10:28:56.192Z,35.50
2018-07-20T10:31:23.748Z,35.50
2018-07-20T10:33:51.307Z,35.10
2018-07-20T10:36:18.937Z,34.80
2018-07-20T10:38:47.254Z,34.70
2018-07-20T10:41:14.808Z,34.60
2018-07-20T10:43:42.761Z,34.40
2018-07-20T10:46:10.310Z,34.50
2018-07-20T10:48:37.865Z,34.20
2018-07-20T10:51:06.250Z,34.10
2018-07-20T10:53:33.804Z,34.10
2018-07-20T10:56:02.117Z,33.40
2018-07-20T10:58:29.748Z,33.30
2018-07-20T11:00:57.292Z,33.10
2018-07-20T11:03:25.608Z,32.90
2018-07-20T11:05:53.572Z,33.20
2018-07-20T11:08:21.272Z,33.50
2018-07-20T11:10:48.805Z,33.50
2018-07-20T11:13:16.402Z,33.30
2018-07-20T11:15:43.954Z,32.90
2018-07-20T11:18:11.505Z,32.70
2018-07-20T11:20:39.896Z,32.50
2018-07-20T11:23:07.443Z,32.10
2018-07-20T11:25:34.998Z,32.70
2018-07-20T11:28:02.995Z,32.40
2018-07-20T11:30:30.505Z,32.30
2018-07-20T11:32:58.056Z,32.30
2018-07-20T11:35:26.419Z,32.10
2018-07-20T11:37:53.962Z,32.00
2018-07-20T11:40:21.509Z,32.10
2018-07-20T11:42:49.110Z,32.40
2018-07-20T11:45:17.428Z,32.00
2018-07-20T11:47:44.976Z,31.90
2018-07-20T11:50:12.579Z,31.60
2018-07-20T11:52:40.132Z,31.30
2018-07-20T11:55:07.685Z,31.10
2018-07-20T11:57:35.304Z,30.40
2018-07-20T12:00:03.621Z,30.50
2018-07-20T12:02:31.173Z,30.40
2018-07-20T12:05:03.577Z,30.20
2018-07-20T12:07:31.129Z,30.30
2018-07-20T12:09:58.686Z,31.60
2018-07-20T12:12:26.302Z,33.90
2018-07-20T12:14:54.629Z,34.60
2018-07-20T12:17:22.176Z,34.60
2018-07-20T12:19:49.790Z,35.10
2018-07-20T12:22:17.375Z,35.60
2018-07-20T12:24:44.924Z,36.10
2018-07-20T12:27:13.288Z,37.30
2018-07-20T12:29:40.836Z,37.30
2018-07-20T12:32:08.394Z,37.40
2018-07-20T12:34:35.989Z,37.60
2018-07-20T12:37:04.300Z,38.20
2018-07-20T12:39:31.853Z,38.10
2018-07-20T12:41:59.489Z,38.00
2018-07-20T12:44:27.822Z,38.00
2018-07-20T12:46:55.380Z,37.90
2018-07-20T12:49:22.972Z,38.00
2018-07-20T12:51:50.519Z,38.40
2018-07-20T12:54:18.073Z,39.30
2018-07-20T12:56:45.685Z,39.90
2018-07-20T12:59:13.233Z,40.70
2018-07-20T13:01:41.549Z,42.60
2018-07-20T13:04:09.224Z,42.60
2018-07-20T13:06:37.485Z,43.70
2018-07-20T13:09:05.041Z,43.70
2018-07-20T13:11:33.039Z,44.20
2018-07-20T13:14:00.581Z,44.80
2018-07-20T13:16:28.133Z,45.80
2018-07-20T13:18:56.124Z,46.30
2018-07-20T13:21:23.664Z,46.90
2018-07-20T13:23:51.243Z,47.50
2018-07-20T13:26:18.842Z,48.30
2018-07-20T13:28:46.397Z,49.60
2018-07-20T13:31:13.947Z,50.00
2018-07-20T13:33:41.538Z,50.70
2018-07-20T13:36:09.859Z,50.50
2018-07-20T13:38:37.411Z,50.40
2018-07-20T13:41:05.005Z,51.20
2018-07-20T13:43:32.561Z,52.00
2018-07-20T13:46:00.113Z,52.10
2018-07-20T13:48:27.729Z,52.40
2018-07-20T13:50:56.037Z,53.30
2018-07-20T13:53:23.590Z,53.20
2018-07-20T13:55:52.093Z,53.30
2018-07-20T13:58:19.654Z,51.80
2018-07-20T14:00:47.457Z,51.50
2018-07-20T14:03:14.958Z,51.20
2018-07-20T14:05:42.506Z,51.10
2018-07-20T14:08:10.115Z,50.10
2018-07-20T14:10:37.710Z,49.60
2018-07-20T14:13:06.026Z,47.80
2018-07-20T14:15:33.573Z,48.10
2018-07-20T14:18:01.222Z,47.00
2018-07-20T14:20:29.524Z,46.00
2018-07-20T14:22:57.069Z,46.00
2018-07-20T14:25:26.694Z,45.00
2018-07-20T14:27:54.235Z,45.00
2018-07-20T14:30:22.558Z,43.60
2018-07-20T14:32:50.180Z,43.60
2018-07-20T14:35:17.737Z,42.40
2018-07-20T14:37:46.047Z,40.50
2018-07-20T14:40:14.548Z,40.50
2018-07-20T14:42:42.107Z,39.60
2018-07-20T14:45:09.707Z,38.60
2018-07-20T14:47:37.270Z,38.70
2018-07-20T14:50:04.814Z,39.00
2018-07-20T14:52:32.369Z,38.50
2018-07-20T14:55:08.862Z,37.80
2018-07-20T14:57:36.553Z,36.00
2018-07-20T15:00:04.101Z,35.90
2018-07-20T15:02:32.464Z,35.60
2018-07-20T15:05:00.021Z,35.60
2018-07-20T15:07:27.565Z,34.60
2018-07-20T15:09:55.154Z,34.40
2018-07-20T15:12:22.707Z,34.30
2018-07-20T15:14:50.247Z,34.00
2018-07-20T15:17:18.708Z,33.60
2018-07-20T15:19:46.548Z,33.30
2018-07-20T15:22:14.097Z,32.80
2018-07-20T15:24:42.205Z,32.30
2018-07-20T15:27:09.764Z,32.20
2018-07-20T15:29:37.330Z,32.10
2018-07-20T15:32:05.648Z,32.70
2018-07-20T15:34:33.194Z,32.50
2018-07-20T15:37:00.741Z,32.50
2018-07-20T15:39:29.257Z,32.00
2018-07-20T15:41:56.765Z,31.70
2018-07-20T15:44:24.356Z,31.10
2018-07-20T15:46:52.161Z,30.80
2018-07-20T15:49:19.518Z,30.90
2018-07-20T15:53:35.460Z,31.30
2018-07-20T15:54:15.456Z,31.20
2018-07-20T15:56:42.981Z,30.90
2018-07-20T15:59:10.522Z,31.40
2018-07-20T16:01:38.134Z,31.70
2018-07-20T16:04:05.691Z,32.10
2018-07-20T16:06:34.005Z,32.90
2018-07-20T16:09:01.602Z,32.10
2018-07-20T16:11:29.157Z,32.20
2018-07-20T16:13:56.685Z,32.50
2018-07-20T16:16:24.997Z,32.80
2018-07-20T16:18:52.538Z,32.90
2018-07-20T16:21:20.090Z,32.70
2018-07-20T16:23:48.464Z,32.60
2018-07-20T16:26:16.069Z,32.80
2018-07-20T16:28:43.611Z,33.20
2018-07-20T16:31:12.439Z,32.30
2018-07-20T16:33:39.990Z,32.20
2018-07-20T16:36:07.545Z,31.90
2018-07-20T16:38:35.201Z,32.20
2018-07-20T16:41:02.718Z,32.00
2018-07-20T16:43:30.270Z,31.90
2018-07-20T16:45:58.477Z,32.10
2018-07-20T16:48:26.021Z,32.40
2018-07-20T16:50:53.566Z,32.60
2018-07-20T16:53:21.160Z,33.00
2018-07-20T16:55:48.708Z,33.30
2018-07-20T16:58:16.293Z,33.90
2018-07-20T17:00:43.861Z,34.30
2018-07-20T17:03:11.422Z,34.50
2018-07-20T17:05:38.967Z,34.70
2018-07-20T17:08:07.109Z,34.80
2018-07-20T17:10:34.705Z,34.70
2018-07-20T17:13:02.215Z,34.70
2018-07-20T17:15:29.800Z,34.70
2018-07-20T17:17:57.352Z,34.80
2018-07-20T17:20:24.899Z,35.00
2018-07-20T17:22:53.259Z,35.10
2018-07-20T17:25:20.804Z,35.10
2018-07-20T17:27:48.390Z,35.20
2018-07-20T17:30:16.335Z,35.60
2018-07-20T17:32:43.886Z,35.80
2018-07-20T17:35:11.440Z,36.00
2018-07-20T17:37:39.060Z,36.10
2018-07-20T17:40:06.608Z,36.10
2018-07-20T17:42:34.921Z,37.20
2018-07-20T17:45:02.609Z,36.50
2018-07-20T17:47:30.096Z,36.50
2018-07-20T17:49:57.646Z,36.40
2018-07-20T17:52:25.290Z,36.30
2018-07-20T17:54:52.839Z,36.40
2018-07-20T17:57:20.395Z,36.40
2018-07-20T17:59:48.916Z,36.50
2018-07-20T18:02:16.528Z,36.60
2018-07-20T18:04:44.039Z,36.70
2018-07-20T18:07:12.509Z,36.90
2018-07-20T18:09:40.181Z,36.90
2018-07-20T18:12:07.733Z,37.00
2018-07-20T18:14:35.348Z,37.00
2018-07-20T18:17:02.916Z,37.30
2018-07-20T18:19:31.211Z,37.40
2018-07-20T18:21:58.808Z,37.40
2018-07-20T18:24:26.382Z,37.60
2018-07-20T18:26:53.957Z,37.80
2018-07-20T18:29:22.906Z,38.00
2018-07-20T18:31:50.464Z,38.20
2018-07-20T18:34:18.019Z,38.30
2018-07-20T18:36:46.020Z,38.40
2018-07-20T18:39:13.532Z,38.60
2018-07-20T18:41:41.079Z,39.00
2018-07-20T18:44:08.848Z,39.20
2018-07-20T18:46:36.395Z,39.60
2018-07-20T18:49:04.703Z,39.90
2018-07-20T18:51:32.306Z,39.80
2018-07-20T18:53:59.866Z,39.80
2018-07-20T18:56:27.411Z,39.90
2018-07-20T18:58:55.380Z,40.50
2018-07-20T19:01:22.930Z,40.40
2018-07-20T19:03:50.480Z,40.70
2018-07-20T19:06:18.086Z,41.30
2018-07-20T19:08:45.638Z,41.20
2018-07-20T19:11:13.191Z,41.50
2018-07-20T19:13:40.790Z,41.90
2018-07-20T19:16:08.332Z,42.20
2018-07-20T19:18:35.883Z,42.50
2018-07-20T19:21:03.512Z,42.80
2018-07-20T19:23:31.108Z,43.10
2018-07-20T19:25:58.639Z,43.50
2018-07-20T19:28:26.233Z,43.80
2018-07-20T19:30:53.778Z,44.00
2018-07-20T19:33:21.328Z,44.20
2018-07-20T19:35:48.963Z,44.70
2018-07-20T19:38:16.509Z,44.70
2018-07-20T19:40:44.058Z,45.10
2018-07-20T19:43:12.939Z,46.30
2018-07-20T19:45:40.489Z,45.70
2018-07-20T19:48:08.039Z,46.00
2018-07-20T19:50:35.640Z,46.20
2018-07-20T19:53:03.189Z,46.80
2018-07-20T19:55:31.505Z,46.90
2018-07-20T19:57:59.093Z,46.80
2018-07-20T20:00:26.647Z,47.10
2018-07-20T20:02:54.204Z,47.50
2018-07-20T20:05:21.836Z,47.80
2018-07-20T20:07:49.381Z,48.20
2018-07-20T20:10:17.706Z,48.90
2018-07-20T20:12:45.680Z,48.80
2018-07-20T20:15:13.247Z,49.10
2018-07-20T20:17:40.803Z,49.50
2018-07-20T20:20:08.439Z,49.60
2018-07-20T20:22:35.993Z,49.80
2018-07-20T20:25:03.568Z,49.10
2018-07-20T20:27:31.864Z,48.90
2018-07-20T20:29:59.412Z,49.10
2018-07-20T20:32:26.970Z,49.30
2018-07-20T20:34:54.568Z,49.60
2018-07-20T20:37:22.122Z,49.80
2018-07-20T20:39:49.665Z,49.80
2018-07-20T20:42:17.731Z,49.90
2018-07-20T20:44:45.282Z,50.00
2018-07-20T20:47:12.841Z,50.20
2018-07-20T20:49:40.469Z,50.40
2018-07-20T20:52:08.032Z,50.60
2018-07-20T20:54:35.587Z,51.40
2018-07-20T20:57:03.536Z,51.00
2018-07-20T20:59:31.086Z,51.70
2018-07-20T21:01:58.638Z,51.30
2018-07-20T21:04:26.254Z,51.40
2018-07-20T21:06:53.791Z,51.20
2018-07-20T21:09:21.349Z,51.30
2018-07-20T21:11:48.978Z,51.30
2018-07-20T21:14:17.262Z,51.30
2018-07-20T21:16:44.811Z,51.30
2018-07-20T21:19:12.796Z,51.30
2018-07-20T21:21:40.345Z,51.40
2018-07-20T21:24:07.899Z,51.40
2018-07-20T21:26:35.551Z,51.50
2018-07-20T21:29:03.103Z,52.00
2018-07-20T21:31:30.685Z,52.60
2018-07-20T21:33:58.240Z,52.90
2018-07-20T21:36:25.794Z,53.30
2018-07-20T21:38:53.339Z,53.60
2018-07-20T21:41:22.577Z,54.70
2018-07-20T21:43:50.131Z,54.70
2018-07-20T21:46:17.707Z,55.50
2018-07-20T21:48:45.965Z,56.10
2018-07-20T21:51:13.458Z,56.60
2018-07-20T21:53:41.004Z,56.60
2018-07-20T21:56:08.652Z,56.70
2018-07-20T21:58:36.209Z,56.90
2018-07-20T22:01:03.791Z,57.30
2018-07-20T22:03:31.943Z,57.40
2018-07-20T22:05:59.502Z,57.30
2018-07-20T22:08:27.111Z,57.30
2018-07-20T22:10:55.059Z,57.40
2018-07-20T22:13:22.609Z,57.30
2018-07-20T22:15:50.154Z,57.90
2018-07-20T22:18:17.750Z,58.40
2018-07-20T22:20:45.312Z,58.50
2018-07-20T22:23:12.870Z,58.60
2018-07-20T22:25:40.450Z,58.70
2018-07-20T22:28:08.107Z,59.00
2018-07-20T22:30:35.662Z,59.10
2018-07-20T22:33:04.231Z,59.50
2018-07-20T22:35:31.785Z,60.70
2018-07-20T22:37:59.343Z,60.30
2018-07-20T22:40:27.831Z,61.10
2018-07-20T22:42:55.383Z,61.70
2018-07-20T22:45:22.931Z,62.20
2018-07-20T22:47:50.565Z,62.40
2018-07-20T22:50:18.883Z,62.80
2018-07-20T22:52:46.436Z,62.70
2018-07-20T22:55:14.030Z,62.50
2018-07-20T22:57:41.587Z,62.40
2018-07-20T23:00:09.153Z,62.30
2018-07-20T23:02:37.215Z,61.90
2018-07-20T23:05:04.767Z,61.40
2018-07-20T23:07:32.314Z,61.90
2018-07-20T23:09:59.895Z,61.50
2018-07-20T23:12:27.456Z,61.90
2018-07-20T23:14:55.009Z,62.40
2018-07-20T23:17:22.597Z,63.10
2018-07-20T23:19:50.152Z,63.90
2018-07-20T23:22:17.705Z,64.80
2018-07-20T23:24:45.312Z,65.80
2018-07-20T23:27:13.647Z,67.00
2018-07-20T23:29:41.197Z,67.00
2018-07-20T23:32:08.785Z,67.20
2018-07-20T23:34:36.341Z,67.30
2018-07-20T23:37:03.903Z,67.50
2018-07-20T23:39:31.483Z,67.70
2018-07-20T23:41:59.031Z,67.80
2018-07-20T23:44:26.582Z,67.80
2018-07-20T23:46:54.194Z,67.70
2018-07-20T23:49:21.743Z,67.50
2018-07-20T23:51:49.290Z,67.10
2018-07-20T23:54:16.872Z,67.30
2018-07-20T23:56:45.192Z,66.10
2018-07-20T23:59:12.746Z,65.60
